createdAt,value
2022-12-11T00:00:50.348Z,100516.50
2022-12-11T00:03:48.983Z,100516.50
2022-12-11T00:06:28.947Z,100520.91
2022-12-11T00:09:06.577Z,100516.50
2022-12-11T00:11:46.989Z,100516.50
2022-12-11T00:14:19.628Z,100517.44
2022-12-11T00:16:54.164Z,100513.06
2022-12-11T00:19:49.078Z,100502.50
2022-12-11T00:25:19.492Z,100507.16
2022-12-11T00:27:58.981Z,100504.84
2022-12-11T00:30:37.556Z,100507.38
2022-12-11T00:33:11.873Z,100513.53
2022-12-11T00:36:09.698Z,100514.44
2022-12-11T00:38:47.769Z,100517.00
2022-12-11T00:41:25.798Z,100516.84
2022-12-11T00:43:59.812Z,100517.75
2022-12-11T00:46:37.847Z,100515.00
2022-12-11T00:49:10.445Z,100522.16
2022-12-11T00:52:08.282Z,100523.94
2022-12-11T00:54:40.874Z,100522.25
2022-12-11T00:57:13.506Z,100523.94
2022-12-11T00:59:44.148Z,100523.09
2022-12-11T01:02:13.956Z,100526.69
2022-12-11T01:04:41.549Z,100530.16
2022-12-11T01:07:09.310Z,100531.06
2022-12-11T01:09:54.846Z,100527.53
2022-12-11T01:12:22.642Z,100526.78
2022-12-11T01:14:52.003Z,100529.63
2022-12-11T01:17:19.591Z,100525.41
2022-12-11T01:19:47.443Z,100528.00
2022-12-11T01:22:15.139Z,100532.41
2022-12-11T01:24:44.038Z,100534.09
2022-12-11T01:27:11.691Z,100528.94
2022-12-11T01:29:40.017Z,100528.94
2022-12-11T01:32:09.067Z,100529.78
2022-12-11T01:34:37.387Z,100532.31
2022-12-11T01:37:06.016Z,100528.00
2022-12-11T01:39:35.082Z,100532.41
2022-12-11T01:42:02.784Z,100539.41
2022-12-11T01:45:08.290Z,100537.72
2022-12-11T01:47:38.436Z,100534.19
2022-12-11T01:50:06.788Z,100529.00
2022-12-11T01:52:34.667Z,100531.69
2022-12-11T01:55:02.531Z,100531.69
2022-12-11T01:57:31.002Z,100530.00
2022-12-11T01:59:58.834Z,100530.09
2022-12-11T02:02:30.479Z,100531.09
2022-12-11T02:04:59.504Z,100528.47
2022-12-11T02:07:30.954Z,100520.78
2022-12-11T02:10:28.802Z,100519.22
2022-12-11T02:13:03.539Z,100520.91
2022-12-11T02:15:36.739Z,100515.69
2022-12-11T02:18:08.971Z,100514.09
2022-12-11T02:20:43.062Z,100517.69
2022-12-11T02:23:46.039Z,100511.47
2022-12-11T02:26:28.066Z,100513.25
2022-12-11T02:28:58.984Z,100517.00
2022-12-11T02:31:34.211Z,100512.44
2022-12-11T02:34:05.584Z,100516.00
2022-12-11T02:36:38.100Z,100515.31
2022-12-11T02:39:09.906Z,100522.31
2022-12-11T02:41:39.984Z,100524.16
2022-12-11T02:44:12.100Z,100526.84
2022-12-11T02:46:42.954Z,100529.47
2022-12-11T02:49:13.359Z,100528.53
2022-12-11T02:51:43.306Z,100521.63
2022-12-11T02:54:16.070Z,100526.72
2022-12-11T02:56:48.994Z,100527.78
2022-12-11T02:59:24.975Z,100520.78
2022-12-11T03:01:53.339Z,100522.53
2022-12-11T03:04:24.802Z,100521.63
2022-12-11T03:07:00.001Z,100510.31
2022-12-11T03:09:31.589Z,100513.78
2022-12-11T03:11:59.406Z,100512.09
2022-12-11T03:14:28.549Z,100512.94
2022-12-11T03:17:05.147Z,100515.53
2022-12-11T03:19:38.000Z,100508.53
2022-12-11T03:22:12.263Z,100512.00
2022-12-11T03:24:51.963Z,100503.41
2022-12-11T03:27:29.080Z,100514.69
2022-12-11T03:30:01.637Z,100513.00
2022-12-11T03:32:39.101Z,100511.25
2022-12-11T03:35:13.146Z,100508.63
2022-12-11T03:37:47.077Z,100506.94
2022-12-11T03:40:17.976Z,100506.00
2022-12-11T03:42:50.004Z,100509.47
2022-12-11T03:45:21.847Z,100509.56
2022-12-11T03:47:50.839Z,100507.91
2022-12-11T03:50:21.145Z,100510.53
2022-12-11T03:52:49.648Z,100515.75
2022-12-11T03:55:20.972Z,100505.31
2022-12-11T03:57:49.663Z,100506.94
2022-12-11T04:00:22.989Z,100515.75
2022-12-11T04:03:09.656Z,100513.16
2022-12-11T04:05:44.002Z,100514.84
2022-12-11T04:08:12.145Z,100513.06
2022-12-11T04:10:40.560Z,100511.47
2022-12-11T04:13:10.099Z,100510.69
2022-12-11T04:15:42.041Z,100509.78
2022-12-11T04:18:25.558Z,100505.38
2022-12-11T04:21:12.171Z,100501.94
2022-12-11T04:23:57.524Z,100504.53
2022-12-11T04:26:27.065Z,100501.13
2022-12-11T04:28:55.710Z,100502.91
2022-12-11T04:31:25.083Z,100501.13
2022-12-11T04:33:53.686Z,100496.78
2022-12-11T04:36:21.268Z,100491.59
2022-12-11T04:38:48.908Z,100496.00
2022-12-11T04:41:17.989Z,100495.91
2022-12-11T04:46:39.718Z,100502.06
2022-12-11T04:49:07.415Z,100501.31
2022-12-11T04:51:35.023Z,100495.22
2022-12-11T04:54:02.616Z,100492.63
2022-12-11T04:56:30.297Z,100496.16
2022-12-11T04:58:57.863Z,100490.09
2022-12-11T05:01:25.532Z,100498.78
2022-12-11T05:04:18.649Z,100494.47
2022-12-11T05:06:47.344Z,100497.09
2022-12-11T05:09:16.990Z,100493.69
2022-12-11T05:11:44.974Z,100492.69
2022-12-11T05:14:12.988Z,100490.94
2022-12-11T05:16:40.621Z,100489.91
2022-12-11T05:19:09.898Z,100482.81
2022-12-11T05:21:37.536Z,100488.84
2022-12-11T05:24:05.861Z,100481.00
2022-12-11T05:29:27.971Z,100482.59
2022-12-11T05:31:56.735Z,100483.41
2022-12-11T05:34:25.771Z,100477.31
2022-12-11T05:36:54.313Z,100489.59
2022-12-11T05:39:22.128Z,100491.38
2022-12-11T05:41:49.741Z,100491.47
2022-12-11T05:44:17.390Z,100495.75
2022-12-11T05:46:45.066Z,100486.91
2022-12-11T05:49:12.775Z,100486.84
2022-12-11T05:51:43.979Z,100492.84
2022-12-11T05:54:12.388Z,100489.38
2022-12-11T05:56:40.782Z,100491.91
2022-12-11T05:59:09.212Z,100491.00
2022-12-11T06:01:39.161Z,100482.25
2022-12-11T06:04:08.644Z,100485.00
2022-12-11T06:06:37.003Z,100484.06
2022-12-11T06:09:07.351Z,100484.16
2022-12-11T06:11:36.831Z,100478.00
2022-12-11T06:14:05.061Z,100477.06
2022-12-11T06:16:33.241Z,100474.41
2022-12-11T06:19:00.852Z,100469.06
2022-12-11T06:21:30.409Z,100471.69
2022-12-11T06:24:24.967Z,100471.69
2022-12-11T06:26:56.506Z,100466.47
2022-12-11T06:29:24.112Z,100463.75
2022-12-11T06:31:51.755Z,100464.59
2022-12-11T06:34:19.405Z,100460.22
2022-12-11T06:36:47.083Z,100458.53
2022-12-11T06:39:15.427Z,100461.16
2022-12-11T06:41:45.035Z,100456.00
2022-12-11T06:44:13.114Z,100452.44
2022-12-11T06:46:40.958Z,100464.59
2022-12-11T06:49:08.570Z,100462.84
2022-12-11T06:51:36.190Z,100463.69
2022-12-11T06:54:03.800Z,100464.59
2022-12-11T06:56:31.514Z,100459.38
2022-12-11T06:59:05.691Z,100464.53
2022-12-11T07:01:35.980Z,100462.91
2022-12-11T07:04:03.548Z,100465.53
2022-12-11T07:06:31.563Z,100463.84
2022-12-11T07:08:59.158Z,100463.94
2022-12-11T07:11:26.891Z,100466.47
2022-12-11T07:14:01.339Z,100468.28
2022-12-11T07:16:30.108Z,100473.59
2022-12-11T07:18:59.876Z,100469.31
2022-12-11T07:21:27.491Z,100473.59
2022-12-11T07:23:55.507Z,100470.91
2022-12-11T07:26:23.419Z,100467.41
2022-12-11T07:28:51.592Z,100470.00
2022-12-11T07:31:25.127Z,100472.53
2022-12-11T07:33:54.980Z,100474.97
2022-12-11T07:36:24.270Z,100477.78
2022-12-11T07:38:51.896Z,100477.00
2022-12-11T07:41:20.005Z,100476.22
2022-12-11T07:43:53.979Z,100476.13
2022-12-11T07:46:25.800Z,100471.78
2022-12-11T07:48:54.111Z,100481.38
2022-12-11T07:51:26.294Z,100480.53
2022-12-11T07:54:04.993Z,100478.75
2022-12-11T07:56:32.852Z,100482.28
2022-12-11T07:59:01.384Z,100479.63
2022-12-11T08:01:32.455Z,100475.25
2022-12-11T08:04:25.348Z,100474.31
2022-12-11T08:06:53.666Z,100474.22
2022-12-11T08:09:22.537Z,100481.16
2022-12-11T08:11:51.227Z,100484.59
2022-12-11T08:14:19.446Z,100478.53
2022-12-11T08:16:50.072Z,100475.81
2022-12-11T08:19:18.606Z,100479.31
2022-12-11T08:21:46.741Z,100487.22
2022-12-11T08:24:16.972Z,100484.56
2022-12-11T08:26:45.517Z,100481.00
2022-12-11T08:29:13.106Z,100477.53
2022-12-11T08:31:42.044Z,100481.84
2022-12-11T08:34:13.728Z,100479.16
2022-12-11T08:36:43.808Z,100472.22
2022-12-11T08:39:11.436Z,100474.94
2022-12-11T08:41:39.044Z,100483.53
2022-12-11T08:44:16.275Z,100484.25
2022-12-11T08:46:45.114Z,100481.75
2022-12-11T08:49:18.371Z,100484.28
2022-12-11T08:51:47.066Z,100485.09
2022-12-11T08:54:14.728Z,100486.84
2022-12-11T08:56:42.325Z,100484.16
2022-12-11T08:59:10.068Z,100482.47
2022-12-11T09:01:37.778Z,100482.38
2022-12-11T09:04:05.509Z,100488.31
2022-12-11T09:06:34.621Z,100487.44
2022-12-11T09:09:04.326Z,100489.16
2022-12-11T09:11:34.977Z,100490.75
2022-12-11T09:14:07.639Z,100484.69
2022-12-11T09:16:39.611Z,100483.97
2022-12-11T09:19:10.969Z,100483.97
2022-12-11T09:21:40.524Z,100473.59
2022-12-11T09:24:11.041Z,100477.16
2022-12-11T09:26:39.166Z,100477.84
2022-12-11T09:29:07.644Z,100467.28
2022-12-11T09:31:37.193Z,100464.69
2022-12-11T09:34:08.128Z,100456.00
2022-12-11T09:36:35.917Z,100456.75
2022-12-11T09:39:06.692Z,100456.59
2022-12-11T09:41:38.957Z,100452.22
2022-12-11T09:44:19.117Z,100456.66
2022-12-11T09:46:48.107Z,100464.28
2022-12-11T09:49:26.093Z,100460.06
2022-12-11T09:52:04.950Z,100454.75
2022-12-11T09:54:35.047Z,100449.50
2022-12-11T09:57:14.870Z,100444.19
2022-12-11T09:59:53.057Z,100443.19
2022-12-11T10:02:32.019Z,100438.72
2022-12-11T10:05:10.129Z,100446.47
2022-12-11T10:07:47.014Z,100448.88
2022-12-11T10:10:26.825Z,100449.00
2022-12-11T10:13:06.535Z,100454.09
2022-12-11T10:15:40.585Z,100450.78
2022-12-11T10:18:14.042Z,100452.41
2022-12-11T10:20:42.745Z,100448.88
2022-12-11T10:23:16.359Z,100461.25
2022-12-11T10:25:51.277Z,100454.25
2022-12-11T10:28:23.129Z,100451.72
2022-12-11T10:30:59.120Z,100454.25
2022-12-11T10:33:35.678Z,100446.25
2022-12-11T10:36:04.079Z,100442.69
2022-12-11T10:38:33.338Z,100451.34
2022-12-11T10:41:05.406Z,100446.84
2022-12-11T10:43:35.183Z,100456.25
2022-12-11T10:46:02.878Z,100452.84
2022-12-11T10:48:33.944Z,100453.63
2022-12-11T10:51:04.766Z,100453.63
2022-12-11T10:53:34.942Z,100449.28
2022-12-11T10:56:04.062Z,100447.47
2022-12-11T10:58:34.411Z,100450.00
2022-12-11T11:01:08.848Z,100443.91
2022-12-11T11:03:42.999Z,100438.59
2022-12-11T11:06:17.940Z,100437.66
2022-12-11T11:08:47.752Z,100435.88
2022-12-11T11:11:26.063Z,100439.28
2022-12-11T11:14:05.412Z,100441.66
2022-12-11T11:16:36.603Z,100439.94
2022-12-11T11:19:04.474Z,100436.44
2022-12-11T11:21:33.413Z,100435.72
2022-12-11T11:24:01.292Z,100429.47
2022-12-11T11:26:56.696Z,100428.72
2022-12-11T11:29:30.288Z,100419.09
2022-12-11T11:32:03.133Z,100421.00
2022-12-11T11:34:30.980Z,100418.34
2022-12-11T11:37:05.482Z,100415.72
2022-12-11T11:39:36.683Z,100415.63
2022-12-11T11:42:14.583Z,100421.72
2022-12-11T11:44:46.581Z,100412.06
2022-12-11T11:47:16.990Z,100418.16
2022-12-11T11:49:55.052Z,100406.84
2022-12-11T11:52:29.477Z,100406.00
2022-12-11T11:55:06.496Z,100405.91
2022-12-11T11:57:42.979Z,100404.91
2022-12-11T12:00:20.583Z,100407.63
2022-12-11T12:02:52.045Z,100412.00
2022-12-11T12:05:27.970Z,100405.75
2022-12-11T12:08:08.489Z,100410.06
2022-12-11T12:10:48.746Z,100409.22
2022-12-11T12:13:48.759Z,100401.38
2022-12-11T12:16:52.166Z,100403.13
2022-12-11T12:19:30.647Z,100401.38
2022-12-11T12:22:06.127Z,100411.66
2022-12-11T12:24:42.605Z,100404.81
2022-12-11T12:27:50.531Z,100411.09
2022-12-11T12:30:21.850Z,100406.59
2022-12-11T12:33:02.998Z,100397.81
2022-12-11T12:35:36.053Z,100396.88
2022-12-11T12:38:14.876Z,100389.03
2022-12-11T12:40:57.119Z,100392.47
2022-12-11T12:43:32.622Z,100393.25
2022-12-11T12:46:13.041Z,100389.81
2022-12-11T12:48:40.991Z,100389.81
2022-12-11T12:51:14.955Z,100388.88
2022-12-11T12:53:49.081Z,100388.88
2022-12-11T12:56:17.530Z,100388.03
2022-12-11T12:58:46.527Z,100387.09
2022-12-11T13:01:20.280Z,100388.97
2022-12-11T13:03:55.984Z,100392.47
2022-12-11T13:06:32.779Z,100385.56
2022-12-11T13:09:13.696Z,100379.66
2022-12-11T13:11:41.679Z,100377.94
2022-12-11T13:14:27.860Z,100371.88
2022-12-11T13:17:09.598Z,100370.88
2022-12-11T13:19:42.265Z,100372.47
2022-12-11T13:22:23.495Z,100370.69
2022-12-11T13:25:01.482Z,100374.09
2022-12-11T13:27:41.977Z,100373.31
2022-12-11T13:30:23.264Z,100379.38
2022-12-11T13:33:02.489Z,100382.78
2022-12-11T13:35:31.579Z,100381.00
2022-12-11T13:38:05.632Z,100389.63
2022-12-11T13:40:39.342Z,100390.66
2022-12-11T13:43:17.903Z,100383.53
2022-12-11T13:45:50.052Z,100391.50
2022-12-11T13:48:25.263Z,100388.97
2022-12-11T13:50:54.282Z,100388.09
2022-12-11T13:53:22.409Z,100388.09
2022-12-11T13:55:57.767Z,100389.88
2022-12-11T13:58:25.856Z,100385.41
2022-12-11T14:01:07.495Z,100391.56
2022-12-11T14:03:36.898Z,100389.81
2022-12-11T14:06:05.128Z,100378.50
2022-12-11T14:08:35.435Z,100387.09
2022-12-11T14:11:03.700Z,100386.25
2022-12-11T14:13:35.266Z,100384.47
2022-12-11T14:16:05.089Z,100382.78
2022-12-11T14:18:36.722Z,100391.41
2022-12-11T14:21:07.966Z,100385.31
2022-12-11T14:23:37.959Z,100392.41
2022-12-11T14:26:17.607Z,100389.81
2022-12-11T14:28:45.556Z,100392.41
2022-12-11T14:31:20.490Z,100400.28
2022-12-11T14:33:54.789Z,100394.19
2022-12-11T14:36:23.994Z,100395.03
2022-12-11T14:38:56.671Z,100402.97
2022-12-11T14:41:28.413Z,100400.53
2022-12-11T14:44:00.479Z,100396.13
2022-12-11T14:46:37.636Z,100401.38
2022-12-11T14:49:13.719Z,100403.06
2022-12-11T14:51:42.896Z,100396.13
2022-12-11T14:54:20.531Z,100395.28
2022-12-11T14:57:12.717Z,100398.00
2022-12-11T14:59:46.710Z,100396.28
2022-12-11T15:02:27.339Z,100398.91
2022-12-11T15:05:04.603Z,100403.28
2022-12-11T15:07:32.899Z,100408.47
2022-12-11T15:10:00.593Z,100398.00
2022-12-11T15:12:32.964Z,100404.22
2022-12-11T15:15:04.192Z,100408.53
2022-12-11T15:17:34.513Z,100407.78
2022-12-11T15:20:08.519Z,100406.19
2022-12-11T15:22:37.470Z,100402.69
2022-12-11T15:25:06.872Z,100417.50
2022-12-11T15:27:36.937Z,100417.41
2022-12-11T15:30:26.868Z,100406.94
2022-12-11T15:33:03.572Z,100413.75
2022-12-11T15:35:33.103Z,100412.91
2022-12-11T15:38:02.480Z,100418.16
2022-12-11T15:40:32.133Z,100418.16
2022-12-11T15:43:03.217Z,100425.16
2022-12-11T15:45:30.847Z,100424.22
2022-12-11T15:47:59.436Z,100428.72
2022-12-11T15:50:29.083Z,100422.56
2022-12-11T15:52:59.954Z,100420.78
2022-12-11T15:55:34.155Z,100434.03
2022-12-11T15:58:04.319Z,100432.38
2022-12-11T16:00:33.059Z,100431.44
2022-12-11T16:03:00.815Z,100421.88
2022-12-11T16:05:29.054Z,100421.00
2022-12-11T16:07:59.538Z,100423.56
2022-12-11T16:10:27.765Z,100427.13
2022-12-11T16:12:59.376Z,100415.88
2022-12-11T16:15:28.701Z,100418.47
2022-12-11T16:18:01.877Z,100418.41
2022-12-11T16:20:30.828Z,100423.72
2022-12-11T16:23:00.394Z,100423.72
2022-12-11T16:25:28.856Z,100425.41
2022-12-11T16:27:57.434Z,100419.28
2022-12-11T16:30:26.103Z,100420.97
2022-12-11T16:32:54.154Z,100414.94
2022-12-11T16:35:22.716Z,100421.09
2022-12-11T16:37:51.296Z,100415.88
2022-12-11T16:40:21.178Z,100421.00
2022-12-11T16:42:50.239Z,100417.56
2022-12-11T16:45:19.773Z,100423.56
2022-12-11T16:47:47.670Z,100423.56
2022-12-11T16:50:17.321Z,100425.25
2022-12-11T16:52:47.929Z,100432.19
2022-12-11T16:55:22.029Z,100427.03
2022-12-11T16:57:51.874Z,100427.78
2022-12-11T17:00:20.409Z,100426.00
2022-12-11T17:02:48.215Z,100426.84
2022-12-11T17:05:16.001Z,100424.19
2022-12-11T17:07:44.020Z,100418.00
2022-12-11T17:10:11.877Z,100420.53
2022-12-11T17:12:39.730Z,100418.75
2022-12-11T17:15:10.073Z,100411.84
2022-12-11T17:17:38.093Z,100420.44
2022-12-11T17:20:06.864Z,100414.28
2022-12-11T17:22:36.440Z,100423.84
2022-12-11T17:25:04.660Z,100423.00
2022-12-11T17:27:32.459Z,100425.63
2022-12-11T17:30:00.231Z,100424.75
2022-12-11T17:32:30.086Z,100431.75
2022-12-11T17:34:57.666Z,100429.16
2022-12-11T17:37:25.423Z,100424.69
2022-12-11T17:39:53.082Z,100421.22
2022-12-11T17:42:20.709Z,100424.69
2022-12-11T17:44:48.433Z,100437.78
2022-12-11T17:47:18.059Z,100421.22
2022-12-11T17:49:47.039Z,100426.47
2022-12-11T17:52:14.655Z,100419.34
2022-12-11T17:54:42.978Z,100420.91
2022-12-11T17:57:10.579Z,100418.59
2022-12-11T17:59:38.331Z,100412.78
2022-12-11T18:02:06.142Z,100418.09
2022-12-11T18:04:33.787Z,100419.78
2022-12-11T18:07:02.959Z,100416.31
2022-12-11T18:09:31.496Z,100425.03
2022-12-11T18:12:00.104Z,100417.16
2022-12-11T18:14:29.376Z,100419.84
2022-12-11T18:16:57.015Z,100421.63
2022-12-11T18:19:26.861Z,100415.53
2022-12-11T18:21:55.410Z,100417.22
2022-12-11T18:24:31.463Z,100418.09
2022-12-11T18:26:59.780Z,100424.19
2022-12-11T18:29:27.394Z,100425.03
2022-12-11T18:31:55.144Z,100418.94
2022-12-11T18:34:22.863Z,100421.56
2022-12-11T18:36:50.476Z,100429.47
2022-12-11T18:39:19.516Z,100428.72
2022-12-11T18:42:03.392Z,100427.88
2022-12-11T18:44:37.636Z,100430.50
2022-12-11T18:47:09.073Z,100428.81
2022-12-11T18:49:38.396Z,100424.41
2022-12-11T18:52:06.265Z,100424.50
2022-12-11T18:54:34.019Z,100423.63
2022-12-11T18:57:03.081Z,100419.31
2022-12-11T18:59:31.512Z,100426.25
2022-12-11T19:01:59.248Z,100431.50
2022-12-11T19:04:27.827Z,100425.41
2022-12-11T19:06:55.482Z,100419.41
2022-12-11T19:09:23.528Z,100423.72
2022-12-11T19:11:51.182Z,100424.66
2022-12-11T19:14:20.188Z,100427.28
2022-12-11T19:16:49.783Z,100428.03
2022-12-11T19:19:20.329Z,100431.56
2022-12-11T19:21:48.957Z,100431.56
2022-12-11T19:24:19.111Z,100432.50
2022-12-11T19:26:47.711Z,100430.72
2022-12-11T19:29:22.975Z,100433.53
2022-12-11T19:31:51.912Z,100425.72
2022-12-11T19:34:20.082Z,100432.75
2022-12-11T19:36:49.023Z,100426.56
2022-12-11T19:39:17.157Z,100415.25
2022-12-11T19:41:44.808Z,100424.75
2022-12-11T19:44:13.113Z,100423.91
2022-12-11T19:46:43.033Z,100423.91
2022-12-11T19:49:12.496Z,100422.13
2022-12-11T19:51:42.995Z,100428.13
2022-12-11T19:54:15.073Z,100431.66
2022-12-11T19:56:45.101Z,100433.44
2022-12-11T19:59:16.607Z,100435.13
2022-12-11T20:01:47.876Z,100430.81
2022-12-11T20:04:17.979Z,100433.34
2022-12-11T20:06:49.064Z,100422.97
2022-12-11T20:09:17.954Z,100427.28
2022-12-11T20:11:47.255Z,100432.50
2022-12-11T20:14:20.931Z,100426.44
2022-12-11T20:17:10.873Z,100425.59
2022-12-11T20:19:38.968Z,100431.75
2022-12-11T20:22:06.939Z,100425.69
2022-12-11T20:24:38.003Z,100429.13
2022-12-11T20:27:06.662Z,100435.31
2022-12-11T20:29:34.562Z,100434.38
2022-12-11T20:32:03.640Z,100424.88
2022-12-11T20:34:31.985Z,100431.91
2022-12-11T20:37:00.219Z,100436.28
2022-12-11T20:39:27.999Z,100436.28
2022-12-11T20:41:55.643Z,100432.91
2022-12-11T20:44:23.276Z,100427.78
2022-12-11T20:46:51.703Z,100431.25
2022-12-11T20:49:20.851Z,100433.84
2022-12-11T20:51:49.959Z,100430.41
2022-12-11T20:54:17.643Z,100432.91
2022-12-11T20:56:45.247Z,100425.91
2022-12-11T20:59:13.236Z,100431.28
2022-12-11T21:01:41.946Z,100432.13
2022-12-11T21:04:09.709Z,100433.91
2022-12-11T21:06:40.595Z,100427.78
2022-12-11T21:09:12.056Z,100433.91
2022-12-11T21:11:41.614Z,100435.69
2022-12-11T21:14:09.374Z,100436.53
2022-12-11T21:16:38.067Z,100435.69
2022-12-11T21:19:06.717Z,100438.31
2022-12-11T21:21:36.852Z,100439.31
2022-12-11T21:24:08.152Z,100436.72
2022-12-11T21:26:36.127Z,100436.78
2022-12-11T21:29:04.072Z,100432.53
2022-12-11T21:31:32.168Z,100437.78
2022-12-11T21:34:00.076Z,100429.00
2022-12-11T21:36:27.712Z,100436.84
2022-12-11T21:38:55.430Z,100430.69
2022-12-11T21:41:25.316Z,100431.56
2022-12-11T21:46:44.178Z,100435.91
2022-12-11T21:49:11.954Z,100433.31
2022-12-11T21:51:46.900Z,100430.69
2022-12-11T21:54:18.894Z,100437.63
2022-12-11T21:56:48.426Z,100428.00
2022-12-11T21:59:41.212Z,100433.31
2022-12-11T22:02:11.964Z,100429.78
2022-12-11T22:04:40.129Z,100435.91
2022-12-11T22:07:07.772Z,100434.22
2022-12-11T22:09:35.939Z,100429.84
2022-12-11T22:12:06.267Z,100431.56
2022-12-11T22:14:34.582Z,100440.25
2022-12-11T22:17:03.483Z,100445.81
2022-12-11T22:19:32.853Z,100444.97
2022-12-11T22:22:00.725Z,100443.19
2022-12-11T22:24:28.398Z,100442.34
2022-12-11T22:26:56.087Z,100445.81
2022-12-11T22:29:25.108Z,100448.44
2022-12-11T22:31:55.971Z,100450.19
2022-12-11T22:34:23.842Z,100450.13
2022-12-11T22:36:51.518Z,100453.56
2022-12-11T22:39:19.128Z,100451.88
2022-12-11T22:41:46.780Z,100444.88
2022-12-11T22:44:16.661Z,100450.97
2022-12-11T22:46:49.869Z,100448.34
2022-12-11T22:49:18.918Z,100449.28
2022-12-11T22:51:47.957Z,100450.13
2022-12-11T22:54:15.667Z,100451.88
2022-12-11T22:56:44.219Z,100447.50
2022-12-11T22:59:11.826Z,100451.88
2022-12-11T23:01:39.783Z,100448.44
2022-12-11T23:04:08.812Z,100447.59
2022-12-11T23:06:37.076Z,100445.81
2022-12-11T23:09:05.015Z,100442.25
2022-12-11T23:11:36.207Z,100445.72
2022-12-11T23:14:04.637Z,100451.81
2022-12-11T23:16:32.505Z,100449.19
2022-12-11T23:19:00.815Z,100453.56
2022-12-11T23:21:30.098Z,100455.25
2022-12-11T23:23:58.790Z,100457.03
2022-12-11T23:26:28.948Z,100460.50
2022-12-11T23:28:58.561Z,100450.03
2022-12-11T23:31:27.270Z,100448.34
2022-12-11T23:33:56.946Z,100450.03
2022-12-11T23:36:25.931Z,100458.72
2022-12-11T23:38:56.091Z,100458.72
2022-12-11T23:41:25.924Z,100459.56
2022-12-11T23:43:53.555Z,100459.66
2022-12-11T23:46:24.987Z,100464.03
2022-12-11T23:48:55.130Z,100464.03
2022-12-11T23:51:25.084Z,100461.50
2022-12-11T23:53:56.061Z,100463.34
2022-12-11T23:56:26.561Z,100455.59
2022-12-11T23:58:55.174Z,100459.03
